Golts, Maryland
Current Conditions -  °F | °C
As of 4:58 PM on Friday 28 Nov 2014 (Local Time) from KDOV Reporting Station
Clear Clear  
Wind Chill: 26°   Ceiling: Unl
Heat Index: 34°   Visibility: 10mi
Dew Point: 15°   Wind: 10mph
Humidity: 45%   Direction: 300°WNW
Pressure: 30.24"   Gusts: NA
Location:  39.3314°N, 75.8397°W
Report Text: KDOV 282158Z AUTO 30009KT 10SM CLR 01/M10 A3024 RMK AO2 SLP244 T00131096
Loading
Personal Weather Stations






























Interactive Weather Map New forecast layout! Learn more

10-Day Weather Forecast

Advertisements
Track Severe Weather on mobile